Time;durP1;ratioP1;P1;durP2;ratioP2;P2;SDS_P1;SDS_P2;PMS_P1;PMS_P2;Temp;Humidity;BMP_temperature;BMP_pressure;BME280_temperature;BME280_humidity;BME280_pressure;Samples;Min_cycle;Max_cycle;Signal;HPM_P1;HPM_P2
2022/08/11 00:01:26;;;;;;;9.18;6.72;;;20.90;68.00;;;;;;4993982;28;20060;-80
2022/08/11 00:04:02;;;;;;;9.27;6.57;;;20.90;68.10;;;;;;5012668;28;20046;-80
2022/08/11 00:06:30;;;;;;;9.15;6.38;;;20.90;68.20;;;;;;4997938;28;20389;-81
2022/08/11 00:08:56;;;;;;;9.32;6.43;;;20.80;68.20;;;;;;5006449;28;20558;-80
2022/08/11 00:11:35;;;;;;;10.95;6.85;;;20.80;68.30;;;;;;5008257;28;20033;-80
2022/08/11 00:14:03;;;;;;;10.30;6.95;;;20.80;68.50;;;;;;4985224;28;20045;-81
2022/08/11 00:16:29;;;;;;;10.43;6.38;;;20.80;68.50;;;;;;5015977;28;20555;-81
2022/08/11 00:18:57;;;;;;;12.15;7.13;;;20.70;68.70;;;;;;4978212;28;20402;-81
2022/08/11 00:21:25;;;;;;;11.18;7.82;;;20.70;68.80;;;;;;4983089;28;20061;-81
2022/08/11 00:23:55;;;;;;;9.07;6.65;;;20.70;68.90;;;;;;4988684;28;20050;-81
2022/08/11 00:26:23;;;;;;;10.07;7.40;;;20.60;69.00;;;;;;4991055;28;20050;-81
2022/08/11 00:28:50;;;;;;;10.32;7.00;;;20.60;69.10;;;;;;4991493;28;20466;-80
2022/08/11 00:31:30;;;;;;;8.25;6.57;;;20.60;69.20;;;;;;4987474;28;20034;-80
2022/08/11 00:33:57;;;;;;;11.63;8.30;;;20.60;69.20;;;;;;4982786;28;20046;-81
2022/08/11 00:36:28;;;;;;;11.60;8.10;;;20.60;69.30;;;;;;4978607;28;20038;-81
2022/08/11 00:39:01;;;;;;;9.90;7.63;;;20.50;69.50;;;;;;4989553;28;20334;-82
2022/08/11 00:41:55;;;;;;;11.88;8.27;;;20.50;69.70;;;;;;5006698;28;20366;-81
2022/08/11 00:44:58;;;;;;;12.27;8.20;;;20.40;70.00;;;;;;4985936;28;20053;-83
2022/08/11 00:47:35;;;;;;;12.85;8.80;;;20.40;70.20;;;;;;4984154;28;20058;-81
2022/08/11 00:50:35;;;;;;;17.60;8.68;;;20.30;70.50;;;;;;4988372;28;20046;-81
2022/08/11 00:53:27;;;;;;;12.35;9.43;;;20.20;70.60;;;;;;5004721;28;20057;-82
2022/08/11 00:56:30;;;;;;;11.70;8.65;;;20.20;70.80;;;;;;4993185;28;20037;-81
2022/08/11 00:59:17;;;;;;;12.13;9.38;;;20.10;71.00;;;;;;5014970;28;20037;-80
2022/08/11 01:02:17;;;;;;;14.20;9.10;;;20.10;71.10;;;;;;4986278;28;20358;-81
2022/08/11 01:05:02;;;;;;;14.10;9.00;;;20.10;71.20;;;;;;5010128;28;20478;-82
2022/08/11 01:07:43;;;;;;;11.02;9.07;;;20.10;71.40;;;;;;4985921;28;20041;-81
2022/08/11 01:10:17;;;;;;;11.88;9.32;;;20.00;71.60;;;;;;5000567;28;20510;-83
2022/08/11 01:13:01;;;;;;;13.95;9.07;;;20.00;71.60;;;;;;5043732;28;20076;-82
2022/08/11 01:15:36;;;;;;;13.95;9.73;;;20.00;71.70;;;;;;5014682;28;20042;-81
2022/08/11 01:19:03;;;;;;;11.68;9.85;;;19.90;71.90;;;;;;5004299;28;20035;-81
2022/08/11 01:21:54;;;;;;;13.18;9.88;;;19.90;72.00;;;;;;4980851;28;20046;-82
2022/08/11 01:24:58;;;;;;;12.48;9.88;;;19.90;72.00;;;;;;5004895;28;20057;-79
2022/08/11 01:27:34;;;;;;;13.52;9.80;;;19.80;72.10;;;;;;4999664;28;20540;-80
2022/08/11 01:30:32;;;;;;;13.95;10.13;;;19.80;72.20;;;;;;5010019;28;20026;-81
2022/08/11 01:33:18;;;;;;;11.65;8.85;;;19.70;72.30;;;;;;4964274;28;20117;-80
2022/08/11 01:36:06;;;;;;;13.85;10.63;;;19.70;72.20;;;;;;4990584;28;20486;-82
2022/08/11 01:39:00;;;;;;;11.75;9.27;;;19.70;72.30;;;;;;4995362;28;20038;-83
2022/08/11 01:44:37;;;;;;;13.98;10.38;;;19.60;72.30;;;;;;5006405;28;20048;-81
2022/08/11 01:47:49;;;;;;;12.27;9.95;;;19.70;72.50;;;;;;4992589;28;20165;-81
2022/08/11 01:50:38;;;;;;;12.88;10.10;;;19.60;72.40;;;;;;4980953;28;20037;-82
2022/08/11 01:53:22;;;;;;;16.27;10.75;;;19.50;72.60;;;;;;4978244;28;20031;-81
2022/08/11 01:56:13;;;;;;;13.98;10.70;;;19.60;72.70;;;;;;5004360;28;20042;-83
2022/08/11 01:58:45;;;;;;;10.27;9.10;;;19.50;72.70;;;;;;4989916;28;20031;-82
2022/08/11 02:01:36;;;;;;;14.40;10.10;;;19.50;72.70;;;;;;4990002;28;20456;-82
2022/08/11 02:04:18;;;;;;;13.52;10.55;;;19.50;72.80;;;;;;5002635;28;20034;-81
2022/08/11 02:07:07;;;;;;;14.80;10.65;;;19.50;72.70;;;;;;5009684;28;20052;-81
2022/08/11 02:09:54;;;;;;;15.63;12.27;;;19.50;72.90;;;;;;4977840;28;20034;-81
2022/08/11 02:12:46;;;;;;;13.20;11.68;;;19.50;72.70;;;;;;4994871;28;20053;-81
2022/08/11 02:15:21;;;;;;;14.88;11.48;;;19.40;73.00;;;;;;5008539;28;20485;-81
2022/08/11 02:18:04;;;;;;;13.30;11.18;;;19.40;73.00;;;;;;5009388;28;20084;-81
2022/08/11 02:23:52;;;;;;;16.20;11.25;;;19.40;73.00;;;;;;4993553;28;20609;-80
2022/08/11 02:26:24;;;;;;;14.52;11.45;;;19.30;73.00;;;;;;5012133;28;20042;-80
2022/08/11 02:29:16;;;;;;;14.98;11.32;;;19.30;73.10;;;;;;5022793;28;20026;-82
2022/08/11 02:34:58;;;;;;;14.18;11.18;;;19.30;73.20;;;;;;5011504;28;20514;-81
2022/08/11 02:37:49;;;;;;;14.82;11.40;;;19.20;73.40;;;;;;5001782;28;20022;-80
2022/08/11 02:40:23;;;;;;;14.15;11.35;;;19.20;73.40;;;;;;5011565;28;20026;-80
2022/08/11 02:43:28;;;;;;;17.40;11.10;;;19.10;73.40;;;;;;5013773;28;20022;-80
2022/08/11 02:46:05;;;;;;;14.68;11.68;;;19.10;73.50;;;;;;4979774;28;20030;-81
2022/08/11 02:51:52;;;;;;;14.60;12.55;;;19.10;73.70;;;;;;4981812;28;20046;-82
2022/08/11 02:54:39;;;;;;;12.95;11.15;;;19.10;73.50;;;;;;4986103;28;20070;-80
2022/08/11 02:57:29;;;;;;;17.45;12.43;;;19.00;73.60;;;;;;4981520;28;20093;-81
2022/08/11 03:00:16;;;;;;;14.43;12.05;;;18.90;74.00;;;;;;4984746;28;20042;-82
2022/08/11 03:02:59;;;;;;;15.38;11.88;;;18.90;74.10;;;;;;5015547;28;20555;-81
2022/08/11 03:05:48;;;;;;;13.43;11.27;;;18.90;74.00;;;;;;5003268;28;20046;-81
2022/08/11 03:08:51;;;;;;;14.68;11.73;;;18.90;74.00;;;;;;5014746;28;20343;-81
2022/08/11 03:18:01;;;;;;;14.07;11.73;;;18.80;74.00;;;;;;4985934;28;20037;-81
2022/08/11 03:20:30;;;;;;;14.93;12.05;;;18.80;74.10;;;;;;4995096;28;20027;-81
2022/08/11 03:23:13;;;;;;;13.43;11.85;;;18.80;74.10;;;;;;4995731;28;20034;-82
2022/08/11 03:26:01;;;;;;;13.30;11.20;;;18.80;74.00;;;;;;5005648;28;20026;-82
2022/08/11 03:29:03;;;;;;;14.23;11.95;;;18.70;74.10;;;;;;4988151;28;20054;-81
2022/08/11 03:31:36;;;;;;;15.40;12.52;;;18.70;74.20;;;;;;4969892;28;20440;-81
2022/08/11 03:34:03;;;;;;;15.70;11.25;;;18.70;74.10;;;;;;4974620;28;20042;-81
2022/08/11 03:36:49;;;;;;;15.63;11.60;;;18.60;74.10;;;;;;4988096;28;20122;-81
2022/08/11 03:39:48;;;;;;;15.00;11.82;;;18.60;74.30;;;;;;4987592;28;20030;-81
2022/08/11 03:42:41;;;;;;;16.00;11.73;;;18.50;74.60;;;;;;4977578;28;20135;-82
2022/08/11 03:45:33;;;;;;;16.35;13.38;;;18.40;74.80;;;;;;4984193;28;20434;-80
2022/08/11 03:48:20;;;;;;;17.05;12.27;;;18.30;75.30;;;;;;4977279;28;20058;-81
2022/08/11 03:51:13;;;;;;;15.77;12.68;;;18.20;75.80;;;;;;4987993;28;20043;-82
2022/08/11 03:53:39;;;;;;;15.68;13.75;;;18.10;76.10;;;;;;4989683;28;20084;-81
2022/08/11 03:56:42;;;;;;;18.38;13.60;;;18.10;76.20;;;;;;4996433;28;20429;-81
2022/08/11 03:59:30;;;;;;;15.75;12.90;;;18.00;76.20;;;;;;4988510;28;20034;-81
2022/08/11 04:02:08;;;;;;;15.55;13.10;;;18.10;76.20;;;;;;4991061;28;20386;-80
2022/08/11 04:04:53;;;;;;;15.25;12.68;;;18.10;76.20;;;;;;5004091;28;20038;-81
2022/08/11 04:08:00;;;;;;;16.80;12.55;;;18.00;76.40;;;;;;4994869;28;20053;-81
2022/08/11 04:10:50;;;;;;;16.95;14.23;;;18.00;76.50;;;;;;4977699;28;20089;-81
2022/08/11 04:13:54;;;;;;;19.85;14.52;;;18.00;76.50;;;;;;4986109;28;20041;-81
2022/08/11 04:16:40;;;;;;;21.55;13.93;;;17.80;76.80;;;;;;5002263;28;20057;-82
2022/08/11 04:19:29;;;;;;;17.00;13.25;;;17.80;77.00;;;;;;5017464;28;20053;-80
2022/08/11 04:22:15;;;;;;;19.70;14.02;;;17.80;76.90;;;;;;4997098;28;20117;-82
2022/08/11 04:24:47;;;;;;;15.95;12.60;;;17.80;76.90;;;;;;4995807;28;20564;-82
2022/08/11 04:27:55;;;;;;;15.55;12.05;;;17.80;76.80;;;;;;4990174;28;20556;-81
2022/08/11 04:30:57;;;;;;;15.95;12.88;;;17.90;76.80;;;;;;4988310;28;20043;-81
2022/08/11 04:33:47;;;;;;;17.38;12.88;;;17.90;76.40;;;;;;4995112;28;20065;-81
2022/08/11 04:40:02;;;;;;;15.02;12.00;;;18.00;75.90;;;;;;5002984;28;20065;-82
2022/08/11 04:45:48;;;;;;;17.35;13.35;;;18.10;75.60;;;;;;5006876;28;20050;-80
2022/08/11 05:05:29;;;;;;;15.60;12.20;;;18.00;75.50;;;;;;5011470;28;20385;-81
2022/08/11 05:07:18;;;;;;;16.17;12.48;;;18.00;75.30;;;;;;4991280;28;20038;-80
2022/08/11 05:10:14;;;;;;;16.33;12.13;;;18.00;75.10;;;;;;5002086;28;20032;-79
2022/08/11 05:12:52;;;;;;;15.13;12.10;;;18.00;75.10;;;;;;5004853;28;20045;-81
2022/08/11 05:35:39;;;;;;;14.32;11.13;;;18.30;74.00;;;;;;4989238;28;20089;-81
2022/08/11 05:57:54;;;;;;;11.82;9.35;;;18.80;70.60;;;;;;4989920;28;20029;-81
2022/08/11 06:00:23;;;;;;;14.30;9.35;;;18.90;70.50;;;;;;4982761;28;20038;-81
2022/08/11 06:02:54;;;;;;;12.88;9.00;;;19.00;70.40;;;;;;4989715;28;20482;-81
2022/08/11 06:05:20;;;;;;;13.20;8.15;;;19.10;70.10;;;;;;5012149;28;20031;-82
2022/08/11 06:07:48;;;;;;;16.75;9.98;;;19.30;69.60;;;;;;5002513;28;20030;-81
2022/08/11 06:10:32;;;;;;;16.13;8.90;;;19.40;69.00;;;;;;4984171;28;20510;-82
2022/08/11 06:12:59;;;;;;;13.33;9.27;;;19.50;68.00;;;;;;4994754;28;20039;-82
2022/08/11 06:15:27;;;;;;;13.68;9.77;;;19.60;67.70;;;;;;4998808;28;20067;-82
2022/08/11 06:17:54;;;;;;;13.70;8.98;;;19.80;66.70;;;;;;4999977;28;20112;-76
2022/08/11 06:20:21;;;;;;;14.20;9.43;;;19.90;66.40;;;;;;4996011;28;20062;-77
2022/08/11 06:22:57;;;;;;;13.18;8.60;;;20.00;65.60;;;;;;4979392;28;20057;-75
2022/08/11 06:25:34;;;;;;;19.88;9.65;;;20.20;66.40;;;;;;4983805;28;20061;-76
2022/08/11 06:28:04;;;;;;;13.73;7.95;;;20.50;64.40;;;;;;4975070;28;20043;-77
2022/08/11 06:30:41;;;;;;;13.60;9.20;;;20.70;64.20;;;;;;4987770;28;20053;-76
2022/08/11 06:33:18;;;;;;;13.65;9.10;;;20.80;62.20;;;;;;5001934;28;20432;-76
2022/08/11 06:36:15;;;;;;;15.35;8.55;;;20.80;62.70;;;;;;4978521;28;20121;-76
2022/08/11 06:39:20;;;;;;;14.82;9.05;;;21.00;62.20;;;;;;4977596;28;20034;-76
2022/08/11 06:42:13;;;;;;;10.93;7.47;;;21.20;61.10;;;;;;4962517;28;20484;-76
2022/08/11 06:44:40;;;;;;;12.88;7.40;;;21.50;61.70;;;;;;4982557;28;20522;-76
2022/08/11 06:47:08;;;;;;;13.45;7.47;;;21.60;61.00;;;;;;4982911;28;20030;-76
2022/08/11 06:52:32;;;;;;;12.13;8.50;;;22.20;58.90;;;;;;4986728;28;20037;-75
2022/08/11 07:01:10;;;;;;;13.30;9.02;;;22.80;57.30;;;;;;4987355;28;20045;-78
2022/08/11 07:03:42;;;;;;;12.48;8.07;;;22.90;55.40;;;;;;4977120;28;20037;-77
2022/08/11 07:06:29;;;;;;;12.25;7.20;;;23.00;56.00;;;;;;4980996;28;20030;-77
2022/08/11 07:29:11;;;;;;;10.77;6.85;;;24.10;52.20;;;;;;4981298;28;20033;-76
2022/08/11 07:31:44;;;;;;;12.88;7.30;;;24.20;52.00;;;;;;4978052;28;20058;-75
2022/08/11 07:34:24;;;;;;;12.65;7.70;;;24.50;51.50;;;;;;4979559;28;20061;-74
2022/08/11 07:36:55;;;;;;;15.93;8.23;;;24.60;50.50;;;;;;4982184;28;20034;-74
2022/08/11 07:39:27;;;;;;;10.98;7.03;;;24.70;49.80;;;;;;5010819;28;20523;-72
2022/08/11 07:41:56;;;;;;;11.13;6.50;;;24.80;49.70;;;;;;5006440;28;20385;-73
2022/08/11 07:44:24;;;;;;;9.75;7.50;;;24.90;49.60;;;;;;4984187;28;20045;-72
2022/08/11 07:52:33;;;;;;;10.60;6.80;;;25.30;48.10;;;;;;4977178;28;20041;-71
2022/08/11 07:55:11;;;;;;;11.05;5.97;;;25.50;48.30;;;;;;4982490;28;21298;-74
2022/08/11 08:19:43;;;;;;;11.32;5.47;;;26.40;45.10;;;;;;4998625;28;20057;-73
2022/08/11 08:22:10;;;;;;;9.15;5.10;;;26.50;43.70;;;;;;4988247;28;20049;-73
2022/08/11 08:24:40;;;;;;;13.43;5.03;;;26.60;43.80;;;;;;4998282;28;20046;-73
2022/08/11 08:27:08;;;;;;;9.57;4.65;;;26.80;43.10;;;;;;4993243;28;20101;-73
2022/08/11 08:32:21;;;;;;;7.35;3.90;;;27.00;42.30;;;;;;4999879;28;20393;-72
2022/08/11 08:34:49;;;;;;;10.38;4.20;;;27.40;41.60;;;;;;4995435;28;20079;-72
2022/08/11 08:37:18;;;;;;;11.45;4.70;;;27.70;40.90;;;;;;5001311;28;20103;-73
2022/08/11 08:39:46;;;;;;;9.82;4.10;;;28.10;40.30;;;;;;4997312;28;20018;-73
2022/08/11 08:42:17;;;;;;;8.93;4.13;;;28.30;40.00;;;;;;5010696;28;20051;-72
2022/08/11 08:44:46;;;;;;;10.40;4.00;;;28.40;39.60;;;;;;5004629;28;20512;-73
2022/08/11 08:47:15;;;;;;;8.23;3.78;;;28.50;39.40;;;;;;5005651;28;20038;-72
2022/08/11 08:49:48;;;;;;;9.02;3.75;;;28.70;38.70;;;;;;5005869;28;20038;-72
2022/08/11 08:52:17;;;;;;;8.35;3.97;;;28.60;38.30;;;;;;5005205;28;20092;-72
2022/08/11 08:54:44;;;;;;;9.77;4.18;;;28.60;38.20;;;;;;5003627;28;20046;-73
2022/08/11 08:57:12;;;;;;;9.38;4.20;;;28.40;39.30;;;;;;5005602;28;20034;-73
2022/08/11 08:59:44;;;;;;;9.20;4.10;;;28.50;37.90;;;;;;5009010;28;20042;-73
2022/08/11 09:02:12;;;;;;;10.52;4.47;;;28.30;38.20;;;;;;5004886;28;20121;-74
2022/08/11 09:04:43;;;;;;;5.78;3.50;;;28.50;37.50;;;;;;5005059;28;20065;-73
2022/08/11 09:07:15;;;;;;;7.82;3.80;;;29.00;37.50;;;;;;4993350;28;20053;-74
2022/08/11 09:09:43;;;;;;;7.30;4.18;;;29.20;36.80;;;;;;4997037;28;20080;-74
2022/08/11 09:12:10;;;;;;;11.32;4.65;;;29.60;37.20;;;;;;5010301;28;20046;-74
2022/08/11 09:17:26;;;;;;;10.88;4.07;;;29.60;34.60;;;;;;5006489;28;20500;-74
2022/08/11 09:19:59;;;;;;;10.95;3.65;;;29.50;36.10;;;;;;5004012;28;20132;-73
2022/08/11 09:27:57;;;;;;;11.00;4.00;;;29.50;34.50;;;;;;4995211;28;20042;-75
2022/08/11 09:30:25;;;;;;;10.02;3.80;;;29.60;34.40;;;;;;5004179;28;20112;-73
2022/08/11 09:32:59;;;;;;;7.15;3.90;;;29.80;34.80;;;;;;5001007;28;20034;-74
2022/08/11 09:35:26;;;;;;;;;;;29.70;35.50;;;;;;5008896;28;20493;-73
2022/08/11 09:40:38;;;;;;;7.35;3.65;;;30.50;33.70;;;;;;5016615;28;20653;-72
2022/08/11 09:45:51;;;;;;;11.25;4.20;;;30.90;33.50;;;;;;5006705;28;20078;-74
2022/08/11 09:48:19;;;;;;;8.30;3.72;;;31.10;33.00;;;;;;5002778;28;20497;-72
2022/08/11 09:50:49;;;;;;;10.85;3.92;;;31.10;32.80;;;;;;5005172;28;20084;-74
2022/08/11 09:53:20;;;;;;;6.78;3.80;;;31.00;33.10;;;;;;5000071;28;20036;-72
2022/08/11 09:55:47;;;;;;;9.15;3.70;;;31.10;33.70;;;;;;5004718;28;20521;-73
2022/08/11 09:58:15;;;;;;;7.55;3.70;;;31.50;32.70;;;;;;5003743;28;20077;-73
2022/08/11 10:00:41;;;;;;;9.90;4.25;;;31.70;32.40;;;;;;5007236;28;20066;-73
2022/08/11 10:03:19;;;;;;;7.88;3.50;;;31.60;31.90;;;;;;5006335;28;20096;-73
2022/08/11 10:08:36;;;;;;;8.52;3.63;;;31.70;31.40;;;;;;5008091;28;20124;-73
2022/08/11 10:11:02;;;;;;;6.97;3.60;;;31.70;30.40;;;;;;5006493;28;20137;-73
2022/08/11 10:13:33;;;;;;;9.07;3.58;;;32.00;29.70;;;;;;5019060;28;20128;-72
2022/08/11 10:16:06;;;;;;;7.68;3.10;;;32.00;30.10;;;;;;5005300;28;20564;-73
2022/08/11 10:18:41;;;;;;;7.03;3.40;;;31.80;30.20;;;;;;5004905;28;20030;-72
2022/08/11 10:21:21;;;;;;;7.07;3.25;;;31.70;30.20;;;;;;4999930;28;20034;-72
2022/08/11 10:34:48;;;;;;;8.65;3.33;;;32.00;29.00;;;;;;5007436;28;20104;-73
2022/08/11 10:37:16;;;;;;;8.80;3.17;;;32.00;28.90;;;;;;4998643;28;20127;-73
2022/08/11 10:39:43;;;;;;;8.05;3.08;;;32.00;28.70;;;;;;5017139;28;20556;-74
2022/08/11 10:44:57;;;;;;;7.07;3.22;;;32.10;28.90;;;;;;5010921;28;20044;-72
2022/08/11 10:47:33;;;;;;;6.65;2.95;;;32.40;28.60;;;;;;5006970;28;20101;-73
2022/08/11 11:01:09;;;;;;;8.30;3.63;;;32.80;29.00;;;;;;4999437;28;20543;-73
2022/08/11 11:03:36;;;;;;;9.40;3.30;;;32.60;28.80;;;;;;5002797;28;20081;-72
2022/08/11 11:06:27;;;;;;;9.40;3.58;;;33.00;29.20;;;;;;4994251;28;20062;-72
2022/08/11 11:09:12;;;;;;;6.07;3.40;;;32.80;28.60;;;;;;5002519;28;20034;-71
2022/08/11 11:20:15;;;;;;;5.95;2.75;;;32.40;26.80;;;;;;4998822;28;20041;-72
2022/08/11 11:22:46;;;;;;;5.32;2.47;;;32.70;26.60;;;;;;4995911;28;20124;-73
2022/08/11 11:26:09;;;;;;;7.13;2.90;;;32.80;26.80;;;;;;4997199;28;20230;-73
2022/08/11 11:28:53;;;;;;;5.78;2.92;;;32.90;26.10;;;;;;4991624;28;20449;-72
2022/08/11 11:31:49;;;;;;;5.97;2.97;;;33.00;26.50;;;;;;4997974;28;20498;-72
2022/08/11 11:34:42;;;;;;;7.50;3.28;;;33.20;26.20;;;;;;5000875;28;20424;-73
2022/08/11 11:37:15;;;;;;;10.88;3.00;;;33.30;26.70;;;;;;4995862;28;20039;-72
2022/08/11 11:39:42;;;;;;;6.18;2.97;;;33.40;26.60;;;;;;4996450;28;20104;-72
2022/08/11 11:42:09;;;;;;;5.53;2.88;;;33.70;26.70;;;;;;4994383;28;20573;-73
2022/08/11 11:44:42;;;;;;;6.13;3.03;;;33.40;26.30;;;;;;4998529;28;20073;-72
2022/08/11 11:47:10;;;;;;;5.90;3.28;;;33.50;26.90;;;;;;5008596;28;20046;-73
2022/08/11 11:49:42;;;;;;;6.65;2.80;;;33.50;26.10;;;;;;4998355;28;20125;-72
2022/08/11 11:52:12;;;;;;;4.38;2.55;;;33.70;25.60;;;;;;4995882;28;20034;-72
2022/08/11 11:54:39;;;;;;;8.15;2.60;;;33.70;26.00;;;;;;4999966;28;20531;-73
2022/08/11 12:02:36;;;;;;;5.88;3.28;;;33.80;25.40;;;;;;4999813;28;20061;-72
2022/08/11 12:05:04;;;;;;;10.55;3.25;;;33.50;25.60;;;;;;5010447;28;20052;-72
2022/08/11 12:10:16;;;;;;;8.02;3.05;;;33.80;26.40;;;;;;5002993;28;20420;-72
2022/08/11 12:15:29;;;;;;;7.68;3.28;;;33.50;25.40;;;;;;5004678;28;20041;-72
2022/08/11 12:17:56;;;;;;;6.47;3.17;;;33.30;26.30;;;;;;4997303;28;20038;-73
2022/08/11 12:20:22;;;;;;;6.07;2.78;;;33.50;25.60;;;;;;4999004;28;20049;-71
2022/08/11 12:28:21;;;;;;;7.47;3.03;;;33.70;25.60;;;;;;4996096;28;20041;-73
2022/08/11 12:30:50;;;;;;;11.18;3.80;;;32.80;26.00;;;;;;5004167;28;20037;-71
2022/08/11 12:33:17;;;;;;;7.15;3.45;;;33.00;27.00;;;;;;5002721;28;20031;-72
2022/08/11 12:35:44;;;;;;;8.85;4.63;;;33.30;26.30;;;;;;4997679;28;20400;-73
2022/08/11 12:38:10;;;;;;;6.50;3.33;;;33.70;26.00;;;;;;5012631;28;20121;-73
2022/08/11 12:46:18;;;;;;;7.15;3.40;;;34.10;25.60;;;;;;5000313;28;20087;-73
2022/08/11 12:52:01;;;;;;;8.07;3.20;;;34.20;25.50;;;;;;5015448;28;20149;-72
2022/08/11 12:54:35;;;;;;;7.25;3.58;;;34.10;25.10;;;;;;5004291;28;20080;-73
2022/08/11 13:05:20;;;;;;;7.65;3.25;;;34.40;24.60;;;;;;4986822;28;20080;-72
2022/08/11 13:07:47;;;;;;;9.07;3.50;;;33.90;25.00;;;;;;4990929;28;20037;-72
2022/08/11 13:12:46;;;;;;;7.68;3.35;;;33.70;24.30;;;;;;4982847;28;20500;-71
2022/08/11 13:13:06;;;;;;;6.40;3.67;;;33.90;24.90;;;;;;4972853;28;20414;-73
2022/08/11 13:15:32;;;;;;;5.93;3.13;;;33.90;25.00;;;;;;4974328;28;20046;-72
2022/08/11 13:17:59;;;;;;;8.15;3.47;;;34.00;24.80;;;;;;5004658;28;20026;-72
2022/08/11 13:20:26;;;;;;;8.70;3.45;;;34.00;24.70;;;;;;5001386;28;20038;-71
2022/08/11 13:22:54;;;;;;;7.97;3.10;;;34.20;24.70;;;;;;4991950;28;20034;-73
2022/08/11 13:25:26;;;;;;;7.25;3.40;;;34.30;24.30;;;;;;4986339;28;20046;-71
2022/08/11 13:27:55;;;;;;;9.07;3.40;;;34.50;24.10;;;;;;4990098;28;20058;-73
2022/08/11 13:33:09;;;;;;;8.48;3.50;;;33.50;24.90;;;;;;4977887;28;20061;-72
2022/08/11 13:35:36;;;;;;;7.80;3.40;;;32.90;25.40;;;;;;4985602;28;20051;-72
2022/08/11 13:38:03;;;;;;;8.60;3.47;;;33.10;25.60;;;;;;4987505;28;20038;-73
2022/08/11 13:40:31;;;;;;;7.60;3.45;;;33.30;25.60;;;;;;4983169;28;20114;-72
2022/08/11 13:42:57;;;;;;;7.63;3.42;;;33.50;25.50;;;;;;4979003;28;20064;-71
2022/08/11 13:45:24;;;;;;;6.38;3.30;;;33.90;25.20;;;;;;4993416;28;20050;-72
2022/08/11 13:47:54;;;;;;;6.90;3.28;;;34.00;24.70;;;;;;5003958;28;20060;-72
2022/08/11 13:50:20;;;;;;;7.50;3.40;;;34.10;24.60;;;;;;4980004;28;20042;-72
2022/08/11 13:52:48;;;;;;;7.75;3.50;;;34.50;24.00;;;;;;4996849;28;20085;-71
2022/08/11 13:55:20;;;;;;;7.10;3.40;;;34.50;23.80;;;;;;5017092;28;20408;-71
2022/08/11 13:57:50;;;;;;;7.80;3.38;;;34.30;23.70;;;;;;4996045;28;20042;-71
2022/08/11 14:00:16;;;;;;;14.85;3.00;;;34.20;24.20;;;;;;4995914;28;20104;-71
2022/08/11 14:02:44;;;;;;;6.00;3.08;;;34.50;23.70;;;;;;4998297;28;20040;-71
2022/08/11 14:05:16;;;;;;;5.20;2.88;;;34.70;23.40;;;;;;5004455;28;20092;-72
2022/08/11 14:07:51;;;;;;;6.93;3.80;;;34.60;23.00;;;;;;4987928;28;20398;-71
2022/08/11 14:10:20;;;;;;;7.35;3.47;;;34.60;23.10;;;;;;4998012;28;20064;-71
2022/08/11 14:15:45;;;;;;;8.32;3.55;;;34.30;23.40;;;;;;5008467;28;20127;-71
2022/08/11 14:18:24;;;;;;;7.72;3.17;;;34.20;24.00;;;;;;5008492;28;20052;-72
2022/08/11 14:23:54;;;;;;;7.40;3.63;;;34.30;23.90;;;;;;4964691;28;20442;-70
2022/08/11 14:26:27;;;;;;;10.23;3.50;;;33.80;23.90;;;;;;4982776;28;20074;-71
2022/08/11 14:29:13;;;;;;;7.47;3.38;;;33.80;24.70;;;;;;4986958;28;20034;-71
2022/08/11 14:31:52;;;;;;;9.10;3.47;;;34.20;24.10;;;;;;5016120;28;20087;-71
2022/08/11 14:34:20;;;;;;;5.97;2.90;;;34.30;23.30;;;;;;5014435;28;20128;-71
2022/08/11 14:36:52;;;;;;;8.73;3.30;;;34.10;23.50;;;;;;5009972;28;20044;-70
2022/08/11 14:39:22;;;;;;;6.63;3.42;;;33.50;24.20;;;;;;5012712;28;20026;-71
2022/08/11 14:47:22;;;;;;;5.15;3.35;;;34.10;24.40;;;;;;5004416;28;20475;-71
2022/08/11 14:49:50;;;;;;;7.57;3.60;;;34.30;24.10;;;;;;5012556;28;20036;-72
2022/08/11 14:52:19;;;;;;;5.38;2.83;;;34.30;23.60;;;;;;4999299;28;20160;-71
2022/08/11 14:57:37;;;;;;;6.25;3.40;;;34.50;23.00;;;;;;5021794;28;20461;-71
2022/08/11 15:00:05;;;;;;;7.07;3.47;;;34.10;23.80;;;;;;5011598;28;20129;-72
2022/08/11 15:05:21;;;;;;;5.35;3.15;;;33.70;23.80;;;;;;5005220;28;20133;-71
2022/08/11 15:07:47;;;;;;;8.43;3.75;;;33.90;24.10;;;;;;5003792;28;20507;-71
2022/08/11 15:10:15;;;;;;;8.20;3.63;;;34.10;24.30;;;;;;5013694;28;20041;-71
2022/08/11 15:12:42;;;;;;;7.25;3.88;;;34.20;24.30;;;;;;5006273;28;20132;-72
2022/08/11 15:17:55;;;;;;;8.52;3.55;;;34.30;24.10;;;;;;5003270;28;20053;-71
2022/08/11 15:26:09;;;;;;;7.35;3.50;;;34.40;23.90;;;;;;5017784;28;20125;-71
2022/08/11 15:45:46;;;;;;;5.57;3.25;;;34.20;23.90;;;;;;5001177;28;20627;-72
2022/08/11 15:48:12;;;;;;;9.10;4.15;;;33.80;24.40;;;;;;4988079;28;20033;-72
2022/08/11 15:50:46;;;;;;;5.47;3.65;;;34.00;24.60;;;;;;4987678;28;20041;-72
2022/08/11 15:53:21;;;;;;;7.18;3.75;;;33.90;24.40;;;;;;4986541;28;20397;-73
2022/08/11 15:55:48;;;;;;;6.00;3.20;;;33.70;24.30;;;;;;4978301;28;20053;-72
2022/08/11 16:04:12;;;;;;;8.32;3.25;;;34.00;25.20;;;;;;4976905;28;20485;-71
2022/08/11 16:06:44;;;;;;;6.10;3.40;;;34.00;24.90;;;;;;5004449;28;20622;-72
2022/08/11 16:09:12;;;;;;;7.38;3.58;;;34.10;24.90;;;;;;4999334;28;20045;-72
2022/08/11 16:11:39;;;;;;;6.43;3.63;;;34.10;25.00;;;;;;4991671;28;20049;-71
2022/08/11 16:16:52;;;;;;;5.75;3.60;;;33.80;25.50;;;;;;4991380;28;20046;-72
2022/08/11 16:19:19;;;;;;;6.78;3.30;;;34.00;25.40;;;;;;4998193;28;20030;-72
2022/08/11 16:21:49;;;;;;;7.03;3.40;;;34.00;24.70;;;;;;4990039;28;20121;-75
2022/08/11 16:24:18;;;;;;;11.32;3.78;;;34.00;24.70;;;;;;4995359;28;20044;-72
2022/08/11 16:26:45;;;;;;;7.05;3.65;;;34.10;24.40;;;;;;4996636;28;20121;-73
2022/08/11 16:29:11;;;;;;;8.88;3.30;;;33.80;24.60;;;;;;4997524;28;20484;-74
2022/08/11 16:31:39;;;;;;;7.60;3.08;;;33.80;24.50;;;;;;4998424;28;20107;-74
2022/08/11 16:38:33;;;;;;;7.93;3.17;;;33.60;24.30;;;;;;5000594;28;20041;-74
2022/08/11 16:39:40;;;;;;;8.30;3.50;;;33.50;25.00;;;;;;5000914;28;20037;-72
2022/08/11 16:47:38;;;;;;;7.78;3.53;;;33.10;25.20;;;;;;4984974;28;20049;-72
2022/08/11 16:50:05;;;;;;;8.32;3.95;;;33.30;25.10;;;;;;4982158;28;20438;-73
2022/08/11 16:52:31;;;;;;;8.25;3.78;;;33.20;24.90;;;;;;4972659;28;20113;-73
2022/08/11 16:54:56;;;;;;;8.70;3.60;;;33.00;25.20;;;;;;4985619;28;20042;-73
2022/08/11 17:00:11;;;;;;;7.00;3.78;;;33.10;25.50;;;;;;4972842;28;20794;-74
2022/08/11 17:14:44;;;;;;;10.15;4.00;;;32.80;25.40;;;;;;4991779;28;20095;-71
2022/08/11 17:17:19;;;;;;;8.55;3.55;;;32.70;25.60;;;;;;4986444;28;20229;-74
2022/08/11 17:19:51;;;;;;;8.45;3.35;;;32.70;25.20;;;;;;4987038;28;20052;-74
2022/08/11 17:25:05;;;;;;;9.52;3.30;;;32.70;25.30;;;;;;5005641;28;20544;-71
2022/08/11 17:27:32;;;;;;;10.13;3.40;;;32.60;25.50;;;;;;4993381;28;20068;-71
2022/08/11 17:30:02;;;;;;;9.43;3.65;;;32.50;25.50;;;;;;5006171;28;20026;-71
2022/08/11 17:35:37;;;;;;;10.23;3.28;;;32.60;26.10;;;;;;4988678;28;20117;-71
2022/08/11 17:38:11;;;;;;;7.53;3.40;;;32.50;25.90;;;;;;4991118;28;20375;-71
2022/08/11 17:48:24;;;;;;;12.77;3.90;;;32.50;26.00;;;;;;5005895;28;20049;-70
2022/08/11 17:49:07;;;;;;;16.58;3.95;;;32.30;26.20;;;;;;4994281;28;20042;-71
2022/08/11 17:59:51;;;;;;;7.93;3.70;;;32.00;26.70;;;;;;4993306;28;20038;-71
2022/08/11 18:05:15;;;;;;;6.85;3.70;;;31.80;26.90;;;;;;4982112;28;20065;-71
